Time;durP1;ratioP1;P1;durP2;ratioP2;P2;SDS_P1;SDS_P2;PMS_P1;PMS_P2;Temp;Humidity;BMP_temperature;BMP_pressure;BME280_temperature;BME280_humidity;BME280_pressure;Samples;Min_cycle;Max_cycle;Signal;HPM_P1;HPM_P2
2022/10/20 00:01:55;;;;;;;0.70;0.70;;;;;;;13.10;73.18;99679.06;5009319;28;20552;-66
2022/10/20 00:04:22;;;;;;;0.60;0.60;;;;;;;12.96;75.28;99664.97;5009557;28;20210;-66
2022/10/20 00:06:49;;;;;;;0.53;0.53;;;;;;;12.89;76.36;99671.25;5009497;28;360109;-67
2022/10/20 00:09:15;;;;;;;0.50;0.50;;;;;;;12.83;77.38;99668.84;5033917;28;20193;-66
2022/10/20 00:11:44;;;;;;;0.77;0.77;;;;;;;12.67;77.90;99667.72;5032681;28;20612;-66
2022/10/20 00:14:13;;;;;;;0.50;0.50;;;;;;;12.58;79.02;99662.00;5029593;28;20205;-66
2022/10/20 00:16:40;;;;;;;0.60;0.60;;;;;;;12.41;80.77;99663.44;5027899;28;20696;-66
2022/10/20 00:19:07;;;;;;;1.10;1.10;;;;;;;12.33;81.55;99653.44;5029769;28;20216;-66
2022/10/20 00:21:33;;;;;;;0.50;0.50;;;;;;;12.32;82.95;99659.47;5031259;28;20677;-66
2022/10/20 00:24:01;;;;;;;0.50;0.50;;;;;;;12.27;83.96;99661.34;5031247;28;20207;-66
2022/10/20 00:26:28;;;;;;;0.50;0.50;;;;;;;12.32;85.05;99664.59;5033369;28;20232;-66
2022/10/20 00:28:55;;;;;;;0.50;0.50;;;;;;;12.35;85.59;99656.78;5028452;28;20201;-66
2022/10/20 00:31:25;;;;;;;0.50;0.50;;;;;;;12.34;86.63;99638.84;5032159;28;20211;-66
2022/10/20 00:33:52;;;;;;;0.60;0.60;;;;;;;12.51;87.03;99652.81;5031195;28;20193;-66
2022/10/20 00:36:21;;;;;;;0.60;0.60;;;;;;;12.61;87.40;99649.03;5029520;28;21428;-66
2022/10/20 00:38:48;;;;;;;0.50;0.50;;;;;;;12.70;87.73;99641.91;5030719;28;20216;-66
2022/10/20 00:41:16;;;;;;;0.57;0.57;;;;;;;12.82;88.49;99646.63;5033672;28;20203;-66
2022/10/20 00:43:46;;;;;;;0.70;0.70;;;;;;;12.93;88.42;99644.47;5029084;28;20205;-66
2022/10/20 00:46:17;;;;;;;0.50;0.50;;;;;;;13.08;88.43;99655.13;5020710;28;20281;-66
2022/10/20 00:48:50;;;;;;;0.77;0.77;;;;;;;13.14;88.46;99649.75;5028833;28;20684;-66
2022/10/20 00:51:22;;;;;;;0.43;0.43;;;;;;;13.26;87.98;99647.59;5022968;28;20210;-66
2022/10/20 00:53:52;;;;;;;0.90;0.90;;;;;;;13.43;88.44;99660.69;5029492;28;20212;-66
2022/10/20 00:56:19;;;;;;;0.53;0.53;;;;;;;13.52;88.26;99648.31;5032032;28;20209;-66
2022/10/20 00:58:46;;;;;;;0.50;0.50;;;;;;;13.72;87.96;99649.28;5030453;28;20218;-66
2022/10/20 01:01:14;;;;;;;0.73;0.73;;;;;;;13.80;87.17;99655.81;5022351;28;20209;-66
2022/10/20 01:03:45;;;;;;;0.50;0.50;;;;;;;13.91;87.36;99653.66;5030643;28;20209;-66
2022/10/20 01:06:15;;;;;;;0.60;0.60;;;;;;;14.01;87.25;99646.41;5030141;28;20320;-66
2022/10/20 01:08:42;;;;;;;0.70;0.70;;;;;;;14.08;87.17;99642.69;5030116;28;20212;-66
2022/10/20 01:11:31;;;;;;;0.50;0.50;;;;;;;14.16;87.37;99648.34;5023559;28;20201;-66
2022/10/20 01:14:24;;;;;;;0.60;0.60;;;;;;;14.29;86.71;99649.53;5033297;28;20199;-66
2022/10/20 01:17:01;;;;;;;0.70;0.70;;;;;;;14.30;86.70;99640.88;5023531;28;20199;-66
2022/10/20 01:20:02;;;;;;;0.63;0.63;;;;;;;14.39;86.27;99656.00;5022623;28;20313;-66
2022/10/20 01:22:48;;;;;;;0.60;0.60;;;;;;;14.42;85.99;99649.88;5021960;28;20597;-66
2022/10/20 01:25:24;;;;;;;0.90;0.90;;;;;;;14.41;85.84;99656.78;5030717;28;20197;-66
2022/10/20 01:27:57;;;;;;;0.70;0.70;;;;;;;14.43;85.79;99656.72;5025127;28;20204;-66
2022/10/20 01:30:24;;;;;;;1.33;1.33;;;;;;;14.40;85.94;99655.13;5023373;28;20232;-66
2022/10/20 01:33:09;;;;;;;0.83;0.83;;;;;;;14.38;86.20;99662.06;5026821;28;20206;-66
2022/10/20 01:35:50;;;;;;;0.60;0.60;;;;;;;14.23;86.35;99644.63;5015700;28;20202;-66
2022/10/20 01:38:23;;;;;;;0.70;0.70;;;;;;;14.33;86.61;99663.13;5024815;28;20228;-66
2022/10/20 01:40:57;;;;;;;0.70;0.70;;;;;;;14.30;86.39;99665.84;5028946;28;20663;-66
2022/10/20 01:43:28;;;;;;;0.50;0.50;;;;;;;14.28;86.17;99668.47;5027329;28;20194;-66
2022/10/20 01:45:58;;;;;;;1.00;1.00;;;;;;;14.27;85.81;99664.22;5028152;28;20201;-66
2022/10/20 01:48:31;;;;;;;0.90;0.90;;;;;;;14.13;85.86;99653.63;5025247;28;20198;-66
2022/10/20 01:50:58;;;;;;;0.73;0.73;;;;;;;14.14;85.95;99665.63;5030525;28;20585;-66
2022/10/20 01:53:25;;;;;;;1.00;1.00;;;;;;;14.21;86.72;99672.22;5025932;28;20255;-66
2022/10/20 01:55:54;;;;;;;0.40;0.40;;;;;;;14.11;85.99;99679.50;5029614;28;20201;-66
2022/10/20 01:58:51;;;;;;;0.87;0.87;;;;;;;14.05;85.11;99684.03;5031998;28;20640;-66
2022/10/20 02:01:28;;;;;;;0.50;0.50;;;;;;;14.02;85.16;99687.56;4989243;28;20578;-66
2022/10/20 02:03:58;;;;;;;0.60;0.60;;;;;;;14.00;85.19;99680.78;5026783;28;20195;-66
2022/10/20 02:06:34;;;;;;;0.70;0.70;;;;;;;13.99;85.27;99686.88;5011201;28;21407;-66
2022/10/20 02:09:05;;;;;;;0.50;0.50;;;;;;;13.93;85.12;99697.38;5009576;28;20201;-66
2022/10/20 02:11:41;;;;;;;0.83;0.83;;;;;;;13.90;85.17;99687.19;5010137;28;20203;-66
2022/10/20 02:14:12;;;;;;;0.50;0.50;;;;;;;13.85;86.86;99689.13;5012060;28;20651;-66
2022/10/20 02:16:43;;;;;;;0.70;0.70;;;;;;;13.76;87.20;99686.91;5012267;28;20575;-66
2022/10/20 02:19:12;;;;;;;0.43;0.43;;;;;;;13.71;87.37;99688.81;5011270;28;20213;-66
2022/10/20 02:21:39;;;;;;;0.50;0.50;;;;;;;13.68;88.64;99692.34;5011952;28;20678;-66
2022/10/20 02:24:09;;;;;;;0.50;0.50;;;;;;;13.63;91.20;99694.28;5010886;28;20205;-66
2022/10/20 02:26:39;;;;;;;0.67;0.67;;;;;;;13.52;92.92;99666.34;5012504;28;20198;-65
2022/10/20 02:29:13;;;;;;;1.03;0.93;;;;;;;13.53;94.02;99673.19;5011667;28;20201;-66
2022/10/20 02:31:41;;;;;;;0.60;0.60;;;;;;;13.63;94.81;99689.94;5012048;28;20585;-66
2022/10/20 02:34:08;;;;;;;0.73;0.73;;;;;;;13.63;95.28;99684.78;5011883;28;20224;-66
2022/10/20 02:36:38;;;;;;;0.77;0.77;;;;;;;13.67;95.57;99691.50;5012088;28;20194;-66
2022/10/20 02:39:05;;;;;;;0.77;0.77;;;;;;;13.75;96.17;99708.41;5011400;28;20225;-66
2022/10/20 02:41:32;;;;;;;0.53;0.53;;;;;;;13.75;95.92;99698.13;5009563;28;20683;-66
2022/10/20 02:43:59;;;;;;;0.93;0.93;;;;;;;13.82;96.05;99709.88;5010546;28;20300;-66
2022/10/20 02:46:27;;;;;;;0.50;0.50;;;;;;;13.74;95.93;99680.97;5008408;28;20202;-66
2022/10/20 02:48:54;;;;;;;0.50;0.50;;;;;;;13.98;96.26;99721.28;5011549;28;20204;-66
2022/10/20 02:51:21;;;;;;;0.50;0.50;;;;;;;14.07;95.87;99726.06;5008187;28;20194;-66
2022/10/20 02:53:48;;;;;;;0.70;0.70;;;;;;;14.17;95.52;99722.22;5008960;28;20563;-66
2022/10/20 02:56:15;;;;;;;1.07;1.07;;;;;;;14.18;94.54;99711.84;5011397;28;20609;-66
2022/10/20 02:58:42;;;;;;;0.50;0.50;;;;;;;14.26;94.00;99710.69;5011529;28;20218;-66
2022/10/20 03:01:09;;;;;;;3.10;1.20;;;;;;;14.41;93.58;99731.56;5011344;28;20998;-66
2022/10/20 03:03:37;;;;;;;0.50;0.50;;;;;;;14.41;93.35;99733.34;5009034;28;20194;-66
2022/10/20 03:06:08;;;;;;;0.40;0.40;;;;;;;14.47;93.39;99736.50;5014291;28;20221;-66
2022/10/20 03:08:35;;;;;;;0.40;0.40;;;;;;;14.50;93.12;99736.38;5024185;28;20205;-66
2022/10/20 03:11:02;;;;;;;0.50;0.50;;;;;;;14.54;93.54;99743.06;5023010;28;20201;-66
2022/10/20 03:13:30;;;;;;;0.50;0.50;;;;;;;14.55;93.47;99744.75;5023414;28;20232;-66
2022/10/20 03:15:56;;;;;;;0.40;0.40;;;;;;;14.50;93.62;99746.72;5021486;28;20304;-66
2022/10/20 03:18:23;;;;;;;0.70;0.70;;;;;;;14.46;93.96;99750.31;5013947;28;20670;-66
2022/10/20 03:20:52;;;;;;;1.00;1.00;;;;;;;14.45;94.26;99750.34;5014099;28;20202;-66
2022/10/20 03:23:19;;;;;;;0.90;0.90;;;;;;;14.37;94.56;99740.38;5016403;28;20202;-66
2022/10/20 03:25:46;;;;;;;0.50;0.50;;;;;;;14.37;94.85;99745.53;5016606;28;20603;-66
2022/10/20 03:28:13;;;;;;;0.57;0.57;;;;;;;14.35;95.27;99747.31;5006231;28;20220;-66
2022/10/20 03:30:40;;;;;;;0.70;0.70;;;;;;;14.35;95.38;99747.31;5017619;28;20229;-66
2022/10/20 03:33:07;;;;;;;0.60;0.60;;;;;;;14.32;95.52;99746.53;5017786;28;20202;-67
2022/10/20 03:35:34;;;;;;;0.90;0.90;;;;;;;14.31;95.66;99750.91;5017616;28;20661;-66
2022/10/20 03:38:02;;;;;;;0.97;0.97;;;;;;;14.26;95.67;99752.78;5015206;28;20201;-66
2022/10/20 03:40:29;;;;;;;0.60;0.60;;;;;;;14.26;96.23;99755.38;5015121;28;20229;-66
2022/10/20 03:42:56;;;;;;;0.50;0.50;;;;;;;14.24;96.36;99762.34;5009828;28;20198;-66
2022/10/20 03:45:23;;;;;;;1.10;0.80;;;;;;;14.22;96.41;99771.88;5019470;28;20220;-66
2022/10/20 03:47:49;;;;;;;0.50;0.50;;;;;;;14.22;96.42;99766.72;5008955;28;20213;-66
2022/10/20 03:50:16;;;;;;;0.40;0.40;;;;;;;14.18;97.02;99778.06;5015556;28;20207;-66
2022/10/20 03:52:43;;;;;;;0.60;0.60;;;;;;;14.16;96.66;99767.78;5013039;28;20209;-67
2022/10/20 03:55:14;;;;;;;0.63;0.63;;;;;;;14.12;96.78;99766.22;5018543;28;20205;-66
2022/10/20 03:57:41;;;;;;;1.00;1.00;;;;;;;14.10;97.51;99767.19;5012757;28;20209;-66
2022/10/20 04:00:09;;;;;;;2.00;1.30;;;;;;;14.08;97.40;99759.53;5014425;28;20709;-67
2022/10/20 04:02:38;;;;;;;0.80;0.80;;;;;;;14.09;97.81;99770.66;5014851;28;20210;-67
2022/10/20 04:05:06;;;;;;;1.07;0.77;;;;;;;14.09;97.71;99770.66;5012948;28;20207;-66
2022/10/20 04:07:33;;;;;;;1.10;1.10;;;;;;;14.03;97.22;99760.59;5031408;28;20304;-66
2022/10/20 04:10:01;;;;;;;0.53;0.53;;;;;;;14.14;97.33;99779.06;5033765;28;20220;-66
2022/10/20 04:12:29;;;;;;;0.50;0.50;;;;;;;14.09;96.89;99771.50;5028814;28;20280;-66
2022/10/20 04:14:56;;;;;;;0.60;0.60;;;;;;;14.11;96.76;99771.44;5030732;28;20198;-66
2022/10/20 04:17:23;;;;;;;0.70;0.70;;;;;;;14.11;96.76;99763.72;5029821;28;20212;-66
2022/10/20 04:19:49;;;;;;;0.57;0.57;;;;;;;14.15;95.98;99760.13;5031392;28;20231;-66
2022/10/20 04:22:16;;;;;;;0.50;0.50;;;;;;;14.13;95.82;99767.06;5029427;28;20205;-66
2022/10/20 04:24:43;;;;;;;3.03;1.43;;;;;;;14.12;95.97;99768.81;5028432;28;20204;-66
2022/10/20 04:27:10;;;;;;;0.53;0.53;;;;;;;14.14;95.88;99779.06;5029676;28;20669;-67
2022/10/20 04:29:39;;;;;;;0.70;0.70;;;;;;;14.13;95.46;99782.53;5032185;28;20288;-66
2022/10/20 04:32:06;;;;;;;0.50;0.50;;;;;;;14.17;94.97;99778.94;5030985;28;20201;-66
2022/10/20 04:34:33;;;;;;;0.50;0.50;;;;;;;14.14;95.18;99790.22;5034147;28;20201;-66
2022/10/20 04:36:59;;;;;;;0.50;0.50;;;;;;;14.15;94.93;99796.22;5030270;28;20330;-67
2022/10/20 04:39:26;;;;;;;1.10;1.10;;;;;;;14.15;94.67;99785.91;5032677;28;20589;-66
2022/10/20 04:41:53;;;;;;;0.50;0.50;;;;;;;14.16;94.36;99792.72;5030592;28;20236;-66
2022/10/20 04:44:20;;;;;;;0.60;0.60;;;;;;;14.14;94.34;99800.53;5030121;28;20585;-66
2022/10/20 04:46:48;;;;;;;0.50;0.50;;;;;;;14.10;94.34;99800.69;5034191;28;20197;-66
2022/10/20 04:49:15;;;;;;;0.73;0.73;;;;;;;14.06;94.61;99799.97;5033451;28;20577;-66
2022/10/20 04:51:42;;;;;;;0.70;0.70;;;;;;;14.08;94.46;99815.41;5034375;28;20287;-66
2022/10/20 04:54:09;;;;;;;0.90;0.90;;;;;;;14.06;94.70;99817.19;5035179;28;20232;-66
2022/10/20 04:56:35;;;;;;;0.80;0.80;;;;;;;14.07;94.36;99829.19;5037091;28;20194;-66
2022/10/20 04:59:02;;;;;;;0.90;0.90;;;;;;;14.06;94.01;99833.50;5035408;28;20232;-66
2022/10/20 05:01:30;;;;;;;0.73;0.73;;;;;;;13.97;94.23;99825.25;5035843;28;20236;-66
2022/10/20 05:03:59;;;;;;;0.50;0.50;;;;;;;14.07;93.64;99844.66;5034793;28;20205;-66
2022/10/20 05:06:28;;;;;;;0.90;0.90;;;;;;;14.07;93.85;99844.66;5036622;28;20726;-66
2022/10/20 05:08:56;;;;;;;1.03;1.03;;;;;;;14.00;94.19;99840.59;5035123;28;20201;-66
2022/10/20 05:11:25;;;;;;;0.60;0.60;;;;;;;13.96;94.26;99841.63;5032807;28;20246;-66
2022/10/20 05:13:53;;;;;;;0.57;0.57;;;;;;;13.95;94.50;99842.53;5031784;28;21858;-66
2022/10/20 05:16:20;;;;;;;1.60;1.53;;;;;;;13.80;94.17;99830.19;5030348;28;20232;-65
2022/10/20 05:18:50;;;;;;;0.60;0.60;;;;;;;13.94;94.00;99858.88;5030220;28;20208;-65
2022/10/20 05:21:21;;;;;;;0.50;0.50;;;;;;;13.86;94.47;99863.50;5030145;28;20210;-67
2022/10/20 05:23:48;;;;;;;1.00;1.00;;;;;;;13.90;94.22;99862.47;5030095;28;20212;-65
2022/10/20 05:26:17;;;;;;;0.60;0.60;;;;;;;13.77;94.21;99835.44;5026384;28;20213;-65
2022/10/20 05:28:46;;;;;;;0.50;0.50;;;;;;;13.85;94.68;99860.06;5032530;28;20708;-65
2022/10/20 05:31:13;;;;;;;0.57;0.57;;;;;;;13.85;94.77;99861.81;5025388;28;20228;-65
2022/10/20 05:33:44;;;;;;;0.50;0.50;;;;;;;13.92;94.81;99886.47;5032694;28;20244;-65
2022/10/20 05:36:13;;;;;;;0.40;0.40;;;;;;;13.98;94.62;99886.25;5027944;28;20197;-65
2022/10/20 05:38:41;;;;;;;0.93;0.93;;;;;;;13.89;94.19;99871.13;5030533;28;20209;-65
2022/10/20 05:41:10;;;;;;;0.90;0.90;;;;;;;14.06;94.09;99895.38;5031448;28;20701;-65
2022/10/20 05:43:37;;;;;;;0.60;0.60;;;;;;;14.17;93.39;99897.56;5029858;28;20228;-65
2022/10/20 05:46:04;;;;;;;1.00;1.00;;;;;;;14.21;93.17;99893.97;5032580;28;20585;-64
2022/10/20 05:48:32;;;;;;;0.93;0.93;;;;;;;14.28;92.90;99895.41;5032197;28;20259;-65
2022/10/20 05:51:07;;;;;;;0.60;0.60;;;;;;;14.31;92.53;99890.16;5031690;28;20559;-65
2022/10/20 05:53:34;;;;;;;0.60;0.60;;;;;;;14.40;91.90;99899.31;5025969;28;20267;-68
2022/10/20 05:56:04;;;;;;;1.00;1.00;;;;;;;14.52;91.57;99910.00;5028648;28;20680;-68
2022/10/20 05:58:31;;;;;;;0.40;0.40;;;;;;;14.58;91.13;99909.78;5030579;28;20569;-67
2022/10/20 06:01:05;;;;;;;0.70;0.70;;;;;;;14.62;90.58;99916.50;5030994;28;20287;-70
2022/10/20 06:03:32;;;;;;;0.70;0.70;;;;;;;14.71;90.34;99931.63;5032429;28;20200;-70
2022/10/20 06:06:00;;;;;;;0.97;0.97;;;;;;;14.63;89.98;99907.88;5027941;28;20613;-66
2022/10/20 06:08:30;;;;;;;1.80;0.80;;;;;;;14.81;89.95;99931.25;5029614;28;20205;-65
2022/10/20 06:10:57;;;;;;;0.50;0.50;;;;;;;14.88;89.36;99937.88;5032326;28;20251;-66
2022/10/20 06:13:25;;;;;;;1.20;1.20;;;;;;;14.94;89.10;99940.22;5032505;28;20210;-66
2022/10/20 06:15:52;;;;;;;0.63;0.63;;;;;;;15.00;88.70;99943.41;5031560;28;20213;-66
2022/10/20 06:18:19;;;;;;;0.50;0.50;;;;;;;15.02;88.73;99941.63;5030954;28;20589;-67
2022/10/20 06:20:45;;;;;;;0.60;0.60;;;;;;;15.10;88.12;99951.63;5028690;28;20680;-68
2022/10/20 06:23:12;;;;;;;0.80;0.80;;;;;;;15.17;87.48;99951.31;5023815;28;20665;-68
2022/10/20 06:25:39;;;;;;;0.50;0.50;;;;;;;15.22;87.47;99954.53;5033262;28;20213;-69
2022/10/20 06:28:06;;;;;;;0.60;0.60;;;;;;;15.30;86.83;99962.00;5032257;28;20205;-68
2022/10/20 06:30:34;;;;;;;0.50;0.50;;;;;;;15.36;86.61;99959.16;5029753;28;20681;-68
2022/10/20 06:33:01;;;;;;;0.50;0.50;;;;;;;15.48;85.94;99965.59;5030772;28;20684;-68
2022/10/20 06:35:28;;;;;;;0.80;0.80;;;;;;;15.55;85.48;99978.22;5027248;28;20198;-68
2022/10/20 06:37:54;;;;;;;0.40;0.40;;;;;;;15.63;85.28;99973.56;5032922;28;20223;-68
2022/10/20 06:40:21;;;;;;;0.53;0.53;;;;;;;15.72;84.62;99969.75;5032825;28;20264;-68
2022/10/20 06:42:48;;;;;;;0.67;0.67;;;;;;;15.81;83.72;99969.38;5035014;28;20208;-68
2022/10/20 06:45:15;;;;;;;0.50;0.50;;;;;;;15.89;83.72;99971.63;5035564;28;20220;-67
2022/10/20 06:47:43;;;;;;;0.53;0.53;;;;;;;15.94;82.73;99967.09;5034452;28;20275;-68
2022/10/20 06:50:10;;;;;;;0.60;0.60;;;;;;;15.96;82.34;99973.06;5032604;28;20280;-68
2022/10/20 06:52:37;;;;;;;0.50;0.50;;;;;;;16.10;82.16;99986.22;5035816;28;20208;-68
2022/10/20 06:55:04;;;;;;;0.57;0.57;;;;;;;16.21;81.06;99994.38;5027893;28;20208;-68
2022/10/20 06:57:31;;;;;;;0.60;0.60;;;;;;;16.28;81.02;99990.59;5029907;28;20201;-68
2022/10/20 06:59:58;;;;;;;0.80;0.80;;;;;;;16.42;80.08;99995.16;5027008;28;20709;-68
2022/10/20 07:02:25;;;;;;;0.63;0.63;;;;;;;16.59;78.52;99990.94;5030150;28;20212;-69
2022/10/20 07:04:53;;;;;;;0.50;0.50;;;;;;;16.67;78.55;99986.25;5031994;28;20694;-70
2022/10/20 07:07:19;;;;;;;0.80;0.80;;;;;;;16.84;77.62;99982.88;5026547;28;20239;-69
2022/10/20 07:09:46;;;;;;;0.87;0.87;;;;;;;17.08;76.35;99986.09;5029273;28;20251;-69
2022/10/20 07:12:13;;;;;;;0.90;0.90;;;;;;;17.22;75.43;99986.28;5029270;28;20275;-69
2022/10/20 07:14:40;;;;;;;0.83;0.83;;;;;;;17.39;74.96;99994.06;5031818;28;20304;-68
2022/10/20 07:17:06;;;;;;;0.50;0.50;;;;;;;17.49;73.71;99991.84;5030446;28;20208;-68
2022/10/20 07:19:33;;;;;;;0.60;0.60;;;;;;;17.58;73.04;99987.09;5029058;28;20212;-68
2022/10/20 07:22:02;;;;;;;0.50;0.50;;;;;;;17.75;71.73;99988.84;5025471;28;20209;-68
2022/10/20 07:24:29;;;;;;;1.10;1.10;;;;;;;17.80;70.97;99979.09;5031607;28;20221;-69
2022/10/20 07:26:55;;;;;;;0.50;0.50;;;;;;;18.00;69.73;99981.50;5028672;28;20288;-71
2022/10/20 07:29:22;;;;;;;0.60;0.60;;;;;;;18.07;68.70;99992.41;5029978;28;20613;-68
2022/10/20 07:31:49;;;;;;;0.57;0.57;;;;;;;18.21;69.07;99989.94;5030902;28;20200;-67
2022/10/20 07:34:19;;;;;;;0.70;0.70;;;;;;;18.28;67.83;99988.72;5031819;28;20201;-67
2022/10/20 07:36:46;;;;;;;1.00;1.00;;;;;;;18.49;66.86;99999.69;5031267;28;20292;-67
2022/10/20 07:39:14;;;;;;;0.93;0.93;;;;;;;18.54;65.74;100003.78;5033649;28;20229;-67
2022/10/20 07:41:42;;;;;;;0.50;0.50;;;;;;;18.60;66.13;99987.03;5035336;28;20580;-71
2022/10/20 07:44:09;;;;;;;0.40;0.40;;;;;;;18.72;64.65;99986.38;5029270;28;20270;-71
2022/10/20 07:46:36;;;;;;;0.50;0.50;;;;;;;18.82;64.14;99978.00;5029874;28;20296;-70
2022/10/20 07:49:03;;;;;;;0.50;0.50;;;;;;;18.88;63.34;99982.84;5031036;28;20662;-69
2022/10/20 07:51:33;;;;;;;0.50;0.50;;;;;;;19.01;63.07;99992.56;5025928;28;20233;-67
2022/10/20 07:54:01;;;;;;;1.27;1.17;;;;;;;19.19;62.07;99981.16;5027978;28;20294;-68
2022/10/20 07:56:31;;;;;;;0.40;0.40;;;;;;;19.25;61.49;99984.25;5031113;28;20212;-67
2022/10/20 07:58:58;;;;;;;0.47;0.47;;;;;;;19.43;61.01;99990.19;5029272;28;20210;-67
2022/10/20 08:01:25;;;;;;;0.40;0.40;;;;;;;19.46;60.31;99984.81;5028387;28;20217;-68
2022/10/20 08:03:52;;;;;;;0.50;0.50;;;;;;;19.66;59.05;99992.31;5029803;28;20197;-68
2022/10/20 08:06:19;;;;;;;0.40;0.40;;;;;;;19.71;57.31;99989.47;5028889;28;20299;-68
2022/10/20 08:08:46;;;;;;;0.50;0.50;;;;;;;19.84;56.61;99986.03;5025581;28;20659;-67
2022/10/20 08:11:13;;;;;;;0.50;0.50;;;;;;;19.92;56.60;99983.81;5028276;28;20212;-67
2022/10/20 08:13:41;;;;;;;0.60;0.60;;;;;;;20.08;54.95;99999.38;5026841;28;20207;-67
2022/10/20 08:16:10;;;;;;;0.73;0.73;;;;;;;20.21;55.95;99992.50;5021755;28;20310;-67
2022/10/20 08:18:37;;;;;;;0.43;0.43;;;;;;;20.33;54.73;100003.97;5028229;28;20201;-67
2022/10/20 08:21:09;;;;;;;0.40;0.40;;;;;;;20.36;53.40;99995.97;5029930;28;20214;-67
2022/10/20 08:23:38;;;;;;;0.50;0.50;;;;;;;20.44;54.16;99996.34;5030474;28;20593;-67
2022/10/20 08:26:06;;;;;;;0.97;0.97;;;;;;;20.55;54.17;99993.91;5028415;28;20265;-67
2022/10/20 08:28:33;;;;;;;0.40;0.40;;;;;;;20.64;52.76;99982.94;5024606;28;20204;-67
2022/10/20 08:31:03;;;;;;;0.40;0.40;;;;;;;20.67;52.65;99982.75;5031003;28;20664;-67
2022/10/20 08:33:30;;;;;;;0.60;0.60;;;;;;;20.90;53.04;99992.53;5033479;28;20199;-67
2022/10/20 08:36:01;;;;;;;0.43;0.43;;;;;;;21.05;52.00;99990.75;5033569;28;20307;-67
2022/10/20 08:38:28;;;;;;;0.57;0.57;;;;;;;21.15;50.92;99988.41;5025654;28;20199;-67
2022/10/20 08:40:55;;;;;;;0.70;0.70;;;;;;;21.14;51.98;99984.13;5030725;28;20579;-67
2022/10/20 08:43:22;;;;;;;0.57;0.57;;;;;;;21.29;51.79;99980.56;5026770;28;20636;-68
2022/10/20 08:45:48;;;;;;;0.50;0.50;;;;;;;21.23;50.68;99984.38;5027999;28;20202;-67
2022/10/20 08:48:20;;;;;;;0.40;0.40;;;;;;;21.32;52.28;99989.03;5033834;28;20716;-67
2022/10/20 08:50:49;;;;;;;1.23;1.23;;;;;;;21.43;50.36;99988.28;5030570;28;20215;-66
2022/10/20 08:53:18;;;;;;;0.30;0.30;;;;;;;21.48;49.23;99991.47;5027030;28;20211;-67
2022/10/20 08:55:45;;;;;;;0.50;0.50;;;;;;;21.54;49.14;99991.06;5025333;28;20211;-67
2022/10/20 08:58:14;;;;;;;0.50;0.50;;;;;;;21.54;50.15;99988.44;5027325;28;20216;-66
2022/10/20 09:00:42;;;;;;;0.50;0.50;;;;;;;21.63;48.94;99990.44;5029242;28;20228;-67
2022/10/20 09:03:20;;;;;;;0.40;0.40;;;;;;;21.63;48.62;99989.59;5026916;28;20271;-67
2022/10/20 09:05:52;;;;;;;0.40;0.40;;;;;;;21.61;46.95;99987.09;5029081;28;20211;-67
2022/10/20 09:08:21;;;;;;;0.40;0.40;;;;;;;21.72;47.62;99983.75;5021183;28;20274;-66
2022/10/20 09:10:51;;;;;;;1.23;1.23;;;;;;;21.82;47.92;99983.06;5032440;28;20288;-67
2022/10/20 09:13:23;;;;;;;0.50;0.50;;;;;;;21.92;47.10;99991.97;5022974;28;20204;-67
2022/10/20 09:15:53;;;;;;;0.83;0.83;;;;;;;21.96;46.08;99982.16;5029218;28;20220;-67
2022/10/20 09:18:21;;;;;;;0.27;0.27;;;;;;;21.98;48.68;99983.72;5030731;28;20592;-67
2022/10/20 09:20:53;;;;;;;0.40;0.40;;;;;;;22.01;46.79;99979.22;5030993;28;20228;-67
2022/10/20 09:23:24;;;;;;;0.60;0.60;;;;;;;22.13;46.80;99983.63;5028078;28;20204;-67
2022/10/20 09:25:52;;;;;;;0.40;0.40;;;;;;;22.03;47.00;99974.75;5019026;28;20209;-67
2022/10/20 09:28:23;;;;;;;0.53;0.53;;;;;;;22.15;46.47;99976.53;5012478;28;20213;-67
2022/10/20 09:30:50;;;;;;;0.40;0.40;;;;;;;22.26;45.35;99981.84;5028696;28;20201;-67
2022/10/20 09:33:27;;;;;;;1.50;1.40;;;;;;;22.32;47.22;99984.88;5020537;28;20208;-68
2022/10/20 09:35:57;;;;;;;0.70;0.70;;;;;;;22.36;45.49;99982.84;5025469;28;20287;-67
2022/10/20 09:38:28;;;;;;;0.30;0.30;;;;;;;22.44;44.81;99978.78;5021004;28;20202;-68
2022/10/20 09:40:59;;;;;;;0.40;0.40;;;;;;;22.47;45.65;99975.97;5029819;28;20248;-67
2022/10/20 09:43:27;;;;;;;0.40;0.40;;;;;;;22.55;44.37;99974.59;5030096;28;20562;-67
2022/10/20 09:45:58;;;;;;;0.47;0.47;;;;;;;22.66;43.04;99977.31;5024138;28;20199;-67
2022/10/20 09:48:31;;;;;;;0.40;0.40;;;;;;;22.64;43.42;99977.41;5024414;28;20213;-67
2022/10/20 09:50:58;;;;;;;0.63;0.63;;;;;;;22.67;42.81;99978.97;5030156;28;20205;-68
2022/10/20 09:53:30;;;;;;;0.40;0.40;;;;;;;22.66;43.06;99977.31;5028763;28;20213;-67
2022/10/20 09:55:57;;;;;;;0.60;0.60;;;;;;;22.69;42.08;99977.09;5033608;28;20201;-67
2022/10/20 09:58:28;;;;;;;0.50;0.50;;;;;;;22.75;42.61;99969.66;5030872;28;20201;-69
2022/10/20 10:00:59;;;;;;;0.30;0.30;;;;;;;22.75;43.36;99972.25;5029833;28;20224;-67
2022/10/20 10:03:27;;;;;;;0.37;0.37;;;;;;;22.73;42.36;99968.94;5031053;28;20743;-67
2022/10/20 10:05:56;;;;;;;0.43;0.43;;;;;;;22.73;42.69;99984.63;5025989;28;20230;-68
2022/10/20 10:08:25;;;;;;;0.40;0.40;;;;;;;22.79;42.75;99978.94;4999265;28;20210;-68
2022/10/20 10:11:01;;;;;;;0.40;0.40;;;;;;;22.85;41.81;99973.28;5007746;28;20222;-66
2022/10/20 10:13:31;;;;;;;0.93;0.93;;;;;;;22.91;42.69;99980.69;5007569;28;20205;-66
2022/10/20 10:16:03;;;;;;;0.30;0.30;;;;;;;22.97;42.56;99979.44;5011196;28;20209;-67
2022/10/20 10:18:32;;;;;;;0.40;0.40;;;;;;;23.02;42.49;99975.53;5009484;28;20205;-67
2022/10/20 10:21:02;;;;;;;0.30;0.30;;;;;;;23.05;41.24;99973.63;5006727;28;20303;-66
2022/10/20 10:23:32;;;;;;;0.40;0.40;;;;;;;23.11;40.34;99973.16;5006013;28;20670;-67
2022/10/20 10:25:59;;;;;;;0.50;0.50;;;;;;;23.16;42.03;99958.84;5000094;28;20292;-67
2022/10/20 10:28:33;;;;;;;0.40;0.40;;;;;;;22.99;40.55;99952.22;5010517;28;20213;-67
2022/10/20 10:31:23;;;;;;;0.57;0.57;;;;;;;23.09;41.27;99954.16;5009130;28;20470;-67
2022/10/20 10:34:18;;;;;;;0.30;0.30;;;;;;;23.16;41.05;99961.44;5009203;28;20768;-69
2022/10/20 10:36:45;;;;;;;0.40;0.40;;;;;;;23.21;39.39;99951.47;5009911;28;20241;-69
2022/10/20 10:39:14;;;;;;;0.30;0.30;;;;;;;23.19;40.86;99957.78;5011079;28;20210;-67
2022/10/20 10:42:00;;;;;;;0.40;0.40;;;;;;;23.21;40.83;99940.16;5011567;28;20594;-68
2022/10/20 10:44:40;;;;;;;0.30;0.30;;;;;;;23.16;39.67;99944.91;5011033;28;20206;-68
2022/10/20 10:47:27;;;;;;;0.70;0.70;;;;;;;23.18;39.82;99948.25;5012036;28;20615;-68
2022/10/20 10:50:02;;;;;;;0.40;0.40;;;;;;;23.24;39.77;99953.03;5011386;28;20209;-68
2022/10/20 10:52:41;;;;;;;0.50;0.50;;;;;;;23.21;39.79;99948.00;5011285;28;20201;-68
2022/10/20 10:55:17;;;;;;;0.40;0.40;;;;;;;23.20;40.00;99939.31;5011194;28;20202;-68
2022/10/20 10:57:55;;;;;;;0.30;0.30;;;;;;;23.16;39.40;99937.06;5012575;28;20669;-68
2022/10/20 11:00:36;;;;;;;0.50;0.50;;;;;;;23.14;40.96;99936.31;5007036;28;20224;-68
2022/10/20 11:03:15;;;;;;;0.47;0.47;;;;;;;23.12;40.09;99927.78;5006723;28;20717;-68
2022/10/20 11:06:18;;;;;;;0.30;0.30;;;;;;;23.11;39.84;99928.72;5007427;28;20214;-68
2022/10/20 11:09:14;;;;;;;0.60;0.60;;;;;;;23.15;39.57;99923.16;4944855;29;20271;-68
2022/10/20 11:11:52;;;;;;;0.63;0.63;;;;;;;23.10;39.77;99927.06;5004600;28;20250;-69
2022/10/20 11:14:34;;;;;;;0.30;0.30;;;;;;;23.24;39.29;99917.22;5007196;28;20458;-69
2022/10/20 11:17:20;;;;;;;0.40;0.40;;;;;;;23.38;37.82;99919.66;5007449;28;20256;-69
2022/10/20 11:19:59;;;;;;;0.40;0.40;;;;;;;23.40;39.37;99912.56;5006070;28;20638;-69
2022/10/20 11:22:37;;;;;;;0.47;0.47;;;;;;;23.40;39.42;99911.72;5006624;28;20722;-69
2022/10/20 11:25:14;;;;;;;0.53;0.53;;;;;;;23.42;39.90;99902.00;5008150;28;20202;-70
2022/10/20 11:27:41;;;;;;;0.50;0.50;;;;;;;23.39;38.13;99900.38;5011819;28;20212;-69
2022/10/20 11:30:17;;;;;;;0.57;0.57;;;;;;;23.40;38.78;99909.09;5011034;28;20206;-69
2022/10/20 11:32:51;;;;;;;0.30;0.30;;;;;;;23.36;38.28;99902.44;5012320;28;20604;-70
2022/10/20 11:35:31;;;;;;;0.20;0.20;;;;;;;23.30;38.29;99895.84;4997612;28;20201;-68
2022/10/20 11:38:15;;;;;;;0.50;0.50;;;;;;;23.30;38.83;99901.06;5010176;28;20205;-68
2022/10/20 11:40:47;;;;;;;0.40;0.40;;;;;;;23.39;38.45;99899.56;5006901;28;20675;-68
2022/10/20 11:43:20;;;;;;;0.27;0.27;;;;;;;23.54;37.79;99908.91;5008725;28;20201;-68
2022/10/20 11:45:51;;;;;;;0.30;0.30;;;;;;;23.28;37.55;99899.53;5006572;28;20205;-68
2022/10/20 11:48:23;;;;;;;1.60;0.60;;;;;;;23.35;37.90;99898.13;5010479;28;20210;-67